Time;durP1;ratioP1;P1;durP2;ratioP2;P2;SDS_P1;SDS_P2;PMS_P1;PMS_P2;Temp;Humidity;BMP_temperature;BMP_pressure;BME280_temperature;BME280_humidity;BME280_pressure;Samples;Min_cycle;Max_cycle;Signal;HPM_P1;HPM_P2
2023/03/28 00:00:49;;;;;;;;;;;3.20;99.90;;;;;;5072506;28;19931;-66
2023/03/28 00:03:17;;;;;;;;;;;3.20;99.90;;;;;;5072057;28;20354;-66
2023/03/28 00:05:50;;;;;;;;;;;3.20;99.90;;;;;;5072459;28;19932;-66
2023/03/28 00:08:16;;;;;;;;;;;3.20;99.90;;;;;;5086831;28;19924;-67
2023/03/28 00:10:41;;;;;;;;;;;3.20;99.90;;;;;;5113007;28;20281;-66
2023/03/28 00:13:07;;;;;;;;;;;3.20;99.90;;;;;;5094244;28;19923;-67
2023/03/28 00:15:34;;;;;;;;;;;3.30;99.90;;;;;;5095006;28;19934;-67
2023/03/28 00:18:00;;;;;;;;;;;3.20;99.90;;;;;;5112919;28;19924;-67
2023/03/28 00:20:28;;;;;;;;;;;3.10;99.90;;;;;;5077942;28;19939;-66
2023/03/28 00:22:54;;;;;;;;;;;3.10;99.90;;;;;;5112728;28;19946;-67
2023/03/28 00:25:20;;;;;;;;;;;3.10;99.90;;;;;;5094444;28;20459;-66
2023/03/28 00:27:45;;;;;;;;;;;3.10;99.90;;;;;;5112650;28;20333;-66
2023/03/28 00:30:11;;;;;;;;;;;3.10;99.90;;;;;;5111941;28;20015;-66
2023/03/28 00:32:36;;;;;;;;;;;3.00;99.90;;;;;;5112542;28;19924;-66
2023/03/28 00:35:02;;;;;;;;;;;3.10;99.90;;;;;;5112626;28;20475;-66
2023/03/28 00:37:28;;;;;;;;;;;3.00;99.90;;;;;;5112264;28;19924;-66
2023/03/28 00:39:54;;;;;;;;;;;3.00;99.90;;;;;;5112458;28;19976;-66
2023/03/28 00:42:20;;;;;;;;;;;3.00;99.90;;;;;;5077418;28;20326;-66
2023/03/28 00:44:51;;;;;;;;;;;3.00;99.90;;;;;;5077733;28;19970;-67
2023/03/28 00:47:29;;;;;;;;;;;3.00;99.90;;;;;;5094214;28;19938;-65
2023/03/28 00:49:58;;;;;;;;;;;2.90;99.90;;;;;;5112589;28;20290;-67
2023/03/28 00:52:25;;;;;;;;;;;2.90;99.90;;;;;;5112074;28;20022;-66
2023/03/28 00:54:52;;;;;;;;;;;2.90;99.90;;;;;;5112604;28;19924;-66
2023/03/28 00:57:17;;;;;;;;;;;2.90;99.90;;;;;;5093813;28;19924;-66
2023/03/28 00:59:43;;;;;;;;;;;2.90;99.90;;;;;;5112397;28;19928;-65
2023/03/28 01:02:09;;;;;;;;;;;2.80;99.90;;;;;;5111884;28;20273;-67
2023/03/28 01:04:37;;;;;;;;;;;2.90;99.90;;;;;;5112333;28;19924;-67
2023/03/28 01:07:03;;;;;;;;;;;2.80;99.90;;;;;;5112348;28;19931;-66
2023/03/28 01:09:29;;;;;;;;;;;2.80;99.90;;;;;;5078011;28;20019;-66
2023/03/28 01:11:56;;;;;;;;;;;2.80;99.90;;;;;;5116237;28;20362;-66
2023/03/28 01:14:22;;;;;;;;;;;2.80;99.90;;;;;;5081062;28;20030;-66
2023/03/28 01:16:50;;;;;;;;;;;2.80;99.90;;;;;;5116285;28;20341;-66
2023/03/28 01:19:25;;;;;;;;;;;2.80;99.90;;;;;;5115734;28;19923;-66
2023/03/28 01:22:05;;;;;;;;;;;2.80;99.90;;;;;;5081351;28;20022;-66
2023/03/28 01:24:43;;;;;;;;;;;2.70;99.90;;;;;;5097637;28;19924;-66
2023/03/28 01:27:27;;;;;;;;;;;2.80;99.90;;;;;;5116082;28;19979;-66
2023/03/28 01:30:02;;;;;;;;;;;2.70;99.90;;;;;;5098026;28;20403;-66
2023/03/28 01:32:30;;;;;;;;;;;2.70;99.90;;;;;;5115726;28;19924;-67
2023/03/28 01:35:14;;;;;;;;;;;2.70;99.90;;;;;;5116101;28;19924;-66
2023/03/28 01:38:03;;;;;;;;;;;2.70;99.90;;;;;;5115986;28;19946;-66
2023/03/28 01:40:31;;;;;;;;;;;2.60;99.90;;;;;;5096854;28;19928;-66
2023/03/28 01:43:06;;;;;;;;;;;2.60;99.90;;;;;;5116075;28;20293;-66
2023/03/28 01:45:40;;;;;;;;;;;2.60;99.90;;;;;;5115421;28;19966;-67
2023/03/28 01:48:08;;;;;;;;;;;2.70;99.90;;;;;;5115782;28;20026;-66
2023/03/28 01:50:43;;;;;;;;;;;2.50;99.90;;;;;;5115165;28;19931;-66
2023/03/28 01:53:16;;;;;;;;;;;2.50;99.90;;;;;;5097783;28;19984;-66
2023/03/28 01:55:47;;;;;;;;;;;2.40;99.90;;;;;;5097466;28;19946;-66
2023/03/28 01:58:29;;;;;;;;;;;2.50;99.90;;;;;;5080599;28;19976;-66
2023/03/28 02:01:01;;;;;;;;;;;2.40;99.90;;;;;;5115726;28;19985;-65
2023/03/28 02:03:29;;;;;;;;;;;2.40;99.90;;;;;;5097093;28;19923;-66
2023/03/28 02:05:56;;;;;;;;;;;2.40;99.90;;;;;;5115558;28;20300;-66
2023/03/28 02:08:23;;;;;;;;;;;2.40;99.90;;;;;;5114720;28;19985;-67
2023/03/28 02:10:50;;;;;;;;;;;2.40;99.90;;;;;;5097297;28;19924;-66
2023/03/28 02:13:20;;;;;;;;;;;2.30;99.90;;;;;;5115482;28;19928;-66
2023/03/28 02:15:49;;;;;;;;;;;2.30;99.90;;;;;;5115316;28;19931;-67
2023/03/28 02:18:19;;;;;;;;;;;2.40;99.90;;;;;;5096905;28;19938;-66
2023/03/28 02:20:48;;;;;;;;;;;2.40;99.90;;;;;;5096193;28;19924;-66
2023/03/28 02:23:16;;;;;;;;;;;2.30;99.90;;;;;;5115498;28;19931;-67
2023/03/28 02:25:41;;;;;;;;;;;2.30;99.90;;;;;;5114784;28;19934;-66
2023/03/28 02:28:07;;;;;;;;;;;2.30;99.90;;;;;;5097173;28;19924;-66
2023/03/28 02:30:34;;;;;;;;;;;2.30;99.90;;;;;;5114418;28;19951;-67
2023/03/28 02:33:01;;;;;;;;;;;2.20;99.90;;;;;;5115009;28;19931;-68
2023/03/28 02:35:31;;;;;;;;;;;2.30;99.90;;;;;;5114568;28;20022;-67
2023/03/28 02:38:00;;;;;;;;;;;2.40;99.90;;;;;;5097037;28;20285;-67
2023/03/28 02:40:31;;;;;;;;;;;2.20;99.90;;;;;;5114234;28;19928;-67
2023/03/28 02:43:02;;;;;;;;;;;2.10;99.90;;;;;;5114754;28;19947;-68
2023/03/28 02:45:28;;;;;;;;;;;2.10;99.90;;;;;;5114303;28;19924;-67
2023/03/28 02:48:00;;;;;;;;;;;2.10;99.90;;;;;;5114728;28;19927;-66
2023/03/28 02:50:29;;;;;;;;;;;2.20;99.90;;;;;;5113745;28;20435;-67
2023/03/28 02:53:09;;;;;;;;;;;2.10;99.90;;;;;;5114062;28;19947;-66
2023/03/28 02:55:43;;;;;;;;;;;2.10;99.90;;;;;;5095678;28;19924;-67
2023/03/28 02:58:12;;;;;;;;;;;2.10;99.90;;;;;;5096665;28;20237;-65
2023/03/28 03:00:38;;;;;;;;;;;2.20;99.90;;;;;;5113559;28;20411;-67
2023/03/28 03:03:07;;;;;;;;;;;2.80;99.90;;;;;;5114392;28;19943;-66
2023/03/28 03:05:33;;;;;;;;;;;2.00;99.90;;;;;;5113899;28;19927;-67
2023/03/28 03:07:58;;;;;;;;;;;2.00;99.90;;;;;;5113960;28;19924;-67
2023/03/28 03:10:24;;;;;;;;;;;2.00;99.90;;;;;;5113859;28;19923;-67
2023/03/28 03:12:50;;;;;;;;;;;2.10;99.90;;;;;;5113888;28;19924;-66
2023/03/28 03:15:15;;;;;;;;;;;2.00;99.90;;;;;;5114256;28;19931;-67
2023/03/28 03:17:42;;;;;;;;;;;2.00;99.90;;;;;;5113760;28;19946;-66
2023/03/28 03:20:08;;;;;;;;;;;2.00;99.90;;;;;;5114129;28;19972;-66
2023/03/28 03:22:35;;;;;;;;;;;2.00;99.90;;;;;;5095247;28;20349;-66
2023/03/28 03:25:05;;;;;;;;;;;2.60;99.90;;;;;;5113971;28;19928;-66
2023/03/28 03:27:31;;;;;;;;;;;2.00;99.90;;;;;;5095272;28;20399;-67
2023/03/28 03:29:57;;;;;;;;;;;2.30;99.90;;;;;;5113595;28;20010;-67
2023/03/28 03:32:23;;;;;;;;;;;1.90;99.90;;;;;;5095623;28;20019;-66
2023/03/28 03:34:48;;;;;;;;;;;1.90;99.90;;;;;;5095382;28;19923;-66
2023/03/28 03:37:17;;;;;;;;;;;2.00;99.90;;;;;;5113615;28;20376;-66
2023/03/28 03:39:43;;;;;;;;;;;1.90;99.90;;;;;;5112725;28;19987;-66
2023/03/28 03:42:09;;;;;;;;;;;1.90;99.90;;;;;;5095472;28;19923;-66
2023/03/28 03:44:35;;;;;;;;;;;2.10;99.90;;;;;;5112983;28;20254;-67
2023/03/28 03:47:00;;;;;;;;;;;2.00;99.90;;;;;;5113528;28;19931;-66
2023/03/28 03:49:26;;;;;;;;;;;1.90;99.90;;;;;;5113015;28;19924;-67
2023/03/28 03:51:52;;;;;;;;;;;1.90;99.90;;;;;;5112793;28;19988;-66
2023/03/28 03:54:17;;;;;;;;;;;1.90;99.90;;;;;;5113434;28;19924;-66
2023/03/28 03:56:43;;;;;;;;;;;1.90;99.90;;;;;;5094414;28;19934;-66
2023/03/28 03:59:09;;;;;;;;;;;1.90;99.90;;;;;;5095217;28;19984;-67
2023/03/28 04:01:35;;;;;;;;;;;1.90;99.90;;;;;;5112755;28;19931;-68
2023/03/28 04:04:00;;;;;;;;;;;1.80;99.90;;;;;;5112981;28;19924;-67
2023/03/28 04:06:28;;;;;;;;;;;1.80;99.90;;;;;;5113173;28;19927;-67
2023/03/28 04:08:53;;;;;;;;;;;1.80;99.90;;;;;;5093765;28;19927;-66
2023/03/28 04:11:19;;;;;;;;;;;1.80;99.90;;;;;;5112955;28;19977;-66
2023/03/28 04:13:45;;;;;;;;;;;1.80;99.90;;;;;;5077928;28;19946;-67
2023/03/28 04:16:12;;;;;;;;;;;2.00;99.90;;;;;;5113163;28;19924;-67
2023/03/28 04:18:38;;;;;;;;;;;1.80;99.90;;;;;;5095176;28;20338;-66
2023/03/28 04:21:04;;;;;;;;;;;1.80;99.90;;;;;;5094609;28;20384;-67
2023/03/28 04:23:29;;;;;;;;;;;1.80;99.90;;;;;;5112922;28;19924;-67
2023/03/28 04:25:59;;;;;;;;;;;1.70;99.90;;;;;;5112568;28;19924;-67
2023/03/28 04:28:26;;;;;;;;;;;1.70;99.90;;;;;;5078111;28;19931;-67
2023/03/28 04:30:58;;;;;;;;;;;2.00;99.90;;;;;;5094081;28;19931;-66
2023/03/28 04:33:24;;;;;;;;;;;1.70;99.90;;;;;;5112529;28;19935;-67
2023/03/28 04:35:56;;;;;;;;;;;1.70;99.90;;;;;;5094394;28;19930;-66
2023/03/28 04:38:25;;;;;;;;;;;1.70;99.90;;;;;;5112440;28;20014;-66
2023/03/28 04:40:57;;;;;;;;;;;1.90;99.90;;;;;;5093840;28;19923;-67
2023/03/28 04:43:24;;;;;;;;;;;1.70;99.90;;;;;;5112439;28;19935;-67
2023/03/28 04:45:50;;;;;;;;;;;1.70;99.90;;;;;;5111421;28;20407;-66
2023/03/28 04:48:15;;;;;;;;;;;1.70;99.90;;;;;;5094625;28;19938;-66
2023/03/28 04:50:41;;;;;;;;;;;1.70;99.90;;;;;;5112257;28;19928;-67
2023/03/28 04:53:07;;;;;;;;;;;1.60;99.90;;;;;;5112370;28;20425;-67
2023/03/28 04:55:32;;;;;;;;;;;1.60;99.90;;;;;;5077724;28;19928;-66
2023/03/28 04:57:58;;;;;;;;;;;1.80;99.90;;;;;;5094264;28;19978;-67
2023/03/28 05:00:24;;;;;;;;;;;1.60;99.90;;;;;;5112436;28;19969;-67
2023/03/28 05:02:53;;;;;;;;;;;1.60;99.90;;;;;;5111577;28;20222;-66
2023/03/28 05:05:19;;;;;;;;;;;1.60;99.90;;;;;;5112379;28;19927;-66
2023/03/28 05:07:45;;;;;;;;;;;1.60;99.90;;;;;;5111725;28;19924;-68
2023/03/28 05:10:10;;;;;;;;;;;1.50;99.90;;;;;;5112179;28;19976;-67
2023/03/28 05:12:36;;;;;;;;;;;1.50;99.90;;;;;;5112141;28;20288;-66
2023/03/28 05:15:02;;;;;;;;;;;1.60;99.90;;;;;;5093972;28;19931;-67
2023/03/28 05:17:27;;;;;;;;;;;1.50;99.90;;;;;;5112151;28;20395;-67
2023/03/28 05:19:53;;;;;;;;;;;1.50;99.90;;;;;;5093550;28;20001;-67
2023/03/28 05:22:19;;;;;;;;;;;1.50;99.90;;;;;;5094168;28;20365;-66
2023/03/28 05:24:45;;;;;;;;;;;1.70;99.90;;;;;;5112202;28;19931;-67
2023/03/28 05:27:10;;;;;;;;;;;1.50;99.90;;;;;;5111948;28;19924;-67
2023/03/28 05:29:36;;;;;;;;;;;1.50;99.90;;;;;;5093997;28;19971;-68
2023/03/28 05:32:01;;;;;;;;;;;1.50;99.90;;;;;;5111662;28;20307;-66
2023/03/28 05:34:28;;;;;;;;;;;1.60;99.90;;;;;;5111801;28;19985;-67
2023/03/28 05:36:55;;;;;;;;;;;1.60;99.90;;;;;;5111719;28;19923;-67
2023/03/28 05:39:22;;;;;;;;;;;1.70;99.90;;;;;;5112131;28;20002;-67
2023/03/28 05:41:48;;;;;;;;;;;1.80;99.90;;;;;;5094180;28;19928;-66
2023/03/28 05:44:14;;;;;;;;;;;1.90;99.90;;;;;;5093063;28;20257;-67
2023/03/28 05:46:39;;;;;;;;;;;2.00;99.90;;;;;;5093453;28;19924;-67
2023/03/28 05:49:05;;;;;;;;;;;2.10;99.90;;;;;;5111633;28;20036;-67
2023/03/28 05:51:30;;;;;;;;;;;2.30;99.90;;;;;;5093593;28;20284;-67
2023/03/28 05:53:56;;;;;;;;;;;2.50;99.90;;;;;;5111481;28;19927;-67
2023/03/28 05:56:21;;;;;;;;;;;2.80;99.90;;;;;;5094564;28;19924;-67
2023/03/28 05:58:47;;;;;;;;;;;3.00;99.90;;;;;;5115181;28;19930;-65
2023/03/28 06:01:16;;;;;;;;;;;3.20;99.90;;;;;;5096393;28;20080;-67
2023/03/28 06:03:44;;;;;;;;;;;3.40;99.90;;;;;;5097493;28;19930;-67
2023/03/28 06:06:10;;;;;;;;;;;3.60;99.90;;;;;;5114401;28;19923;-66
2023/03/28 06:08:36;;;;;;;;;;;3.70;99.90;;;;;;5079961;28;19924;-66
2023/03/28 06:11:02;;;;;;;;;;;3.70;99.90;;;;;;5114791;28;19930;-65
2023/03/28 06:13:28;;;;;;;;;;;3.70;99.90;;;;;;5115155;28;19924;-66
2023/03/28 06:15:54;;;;;;;;;;;3.70;99.90;;;;;;5096965;28;19924;-66
2023/03/28 06:18:19;;;;;;;;;;;3.70;99.90;;;;;;5096409;28;19923;-67
2023/03/28 06:20:45;;;;;;;;;;;3.70;99.90;;;;;;5115150;28;19943;-66
2023/03/28 06:23:10;;;;;;;;;;;3.60;99.90;;;;;;5114786;28;20366;-67
2023/03/28 06:25:36;;;;;;;;;;;3.70;99.90;;;;;;5115051;28;19924;-67
2023/03/28 06:28:02;;;;;;;;;;;3.70;99.90;;;;;;5114495;28;19927;-66
2023/03/28 06:30:27;;;;;;;;;;;3.70;99.90;;;;;;5114045;28;19930;-66
2023/03/28 06:32:53;;;;;;;;;;;3.70;99.90;;;;;;5096641;28;19935;-66
2023/03/28 06:35:19;;;;;;;;;;;3.70;99.90;;;;;;5113901;28;19931;-66
2023/03/28 06:37:44;;;;;;;;;;;3.70;99.90;;;;;;5114609;28;19924;-67
2023/03/28 06:40:10;;;;;;;;;;;3.70;99.90;;;;;;5079232;28;19963;-67
2023/03/28 06:42:36;;;;;;;;;;;3.70;99.90;;;;;;5114075;28;19924;-67
2023/03/28 06:45:02;;;;;;;;;;;3.70;99.90;;;;;;5095875;28;20006;-67
2023/03/28 06:47:28;;;;;;;;;;;3.80;99.90;;;;;;5096062;28;19972;-66
2023/03/28 06:49:54;;;;;;;;;;;3.80;99.90;;;;;;5113709;28;20389;-65
2023/03/28 06:52:21;;;;;;;;;;;3.90;99.90;;;;;;5095611;28;19920;-65
2023/03/28 06:54:47;;;;;;;;;;;3.90;99.90;;;;;;5095789;28;19927;-66
2023/03/28 06:57:13;;;;;;;;;;;4.00;99.90;;;;;;5113733;28;19927;-65
2023/03/28 06:59:39;;;;;;;;;;;4.10;99.90;;;;;;5113969;28;19928;-67
2023/03/28 07:02:05;;;;;;;;;;;4.20;99.90;;;;;;5113688;28;19927;-68
2023/03/28 07:04:31;;;;;;;;;;;4.20;99.90;;;;;;5113954;28;19923;-66
2023/03/28 07:06:57;;;;;;;;;;;4.70;99.90;;;;;;5113809;28;19923;-64
2023/03/28 07:09:22;;;;;;;;;;;4.20;99.90;;;;;;5094279;28;19957;-66
2023/03/28 07:11:48;;;;;;;;;;;;;;;;;;5113371;28;20276;-65
2023/03/28 07:14:14;;;;;;;;;;;4.80;99.90;;;;;;5113207;28;20404;-65
2023/03/28 07:16:40;;;;;;;;;;;6.50;99.90;;;;;;5078816;28;19953;-66
2023/03/28 07:19:06;;;;;;;;;;;7.40;99.90;;;;;;5078404;28;19971;-66
2023/03/28 07:21:31;;;;;;;;;;;8.20;99.90;;;;;;5113304;28;19943;-67
2023/03/28 07:23:57;;;;;;;;;;;8.90;99.90;;;;;;5113608;28;19924;-66
2023/03/28 07:26:23;;;;;;;;;;;9.60;99.90;;;;;;5113268;28;19958;-67
2023/03/28 07:28:48;;;;;;;;;;;10.20;99.90;;;;;;5113139;28;19950;-66
2023/03/28 07:31:15;;;;;;;;;;;10.80;99.90;;;;;;5094595;28;19932;-67
2023/03/28 07:33:41;;;;;;;;;;;11.20;99.90;;;;;;5095404;28;19968;-66
2023/03/28 07:36:08;;;;;;;;;;;11.60;99.90;;;;;;5094775;28;20017;-67
2023/03/28 07:38:34;;;;;;;;;;;11.80;99.90;;;;;;5113579;28;19924;-68
2023/03/28 07:41:00;;;;;;;;;;;12.10;99.90;;;;;;5095428;28;19923;-68
2023/03/28 07:43:25;;;;;;;;;;;12.30;99.90;;;;;;5113262;28;20448;-67
2023/03/28 07:45:52;;;;;;;;;;;13.10;99.90;;;;;;5113544;28;19924;-67
2023/03/28 07:48:18;;;;;;;;;;;;;;;;;;5078405;28;19924;-67
2023/03/28 07:50:44;;;;;;;;;;;;;;;;;;5113250;28;19970;-67
2023/03/28 07:53:10;;;;;;;;;;;;;;;;;;5113019;28;19928;-67
2023/03/28 07:55:37;;;;;;;;;;;13.40;99.90;;;;;;5078295;28;20307;-68
2023/03/28 07:58:03;;;;;;;;;;;15.50;96.40;;;;;;5113379;28;19951;-68
2023/03/28 08:00:28;;;;;;;;;;;16.00;95.10;;;;;;5094541;28;20350;-68
2023/03/28 08:02:56;;;;;;;;;;;16.50;94.90;;;;;;5113214;28;19967;-66
2023/03/28 08:05:22;;;;;;;;;;;16.80;94.20;;;;;;5112508;28;19976;-67
2023/03/28 08:07:51;;;;;;;;;;;17.20;93.40;;;;;;5113190;28;19934;-67
2023/03/28 08:10:16;;;;;;;;;;;17.50;93.10;;;;;;5093830;28;19924;-67
2023/03/28 08:12:42;;;;;;;;;;;17.90;92.60;;;;;;5112641;28;20066;-68
2023/03/28 08:15:08;;;;;;;;;;;18.10;91.30;;;;;;5112829;28;19930;-67
2023/03/28 08:17:34;;;;;;;;;;;18.30;91.80;;;;;;5094368;28;19970;-68
2023/03/28 08:19:59;;;;;;;;;;;18.60;90.90;;;;;;5094159;28;20016;-68
2023/03/28 08:22:25;;;;;;;;;;;18.80;90.90;;;;;;5094387;28;19923;-67
2023/03/28 08:24:51;;;;;;;;;;;18.80;90.90;;;;;;5094370;28;19923;-67
2023/03/28 08:27:16;;;;;;;;;;;19.00;90.40;;;;;;5112054;28;19923;-67
2023/03/28 08:29:42;;;;;;;;;;;19.10;89.70;;;;;;5112156;28;19928;-67
2023/03/28 08:32:08;;;;;;;;;;;19.10;88.20;;;;;;5077337;28;19987;-67
2023/03/28 08:34:33;;;;;;;;;;;18.80;88.90;;;;;;5112095;28;20022;-66
2023/03/28 08:36:59;;;;;;;;;;;18.20;87.60;;;;;;5094256;28;20006;-67
2023/03/28 08:39:25;;;;;;;;;;;17.10;86.00;;;;;;5112174;28;19924;-66
2023/03/28 08:42:02;;;;;;;;;;;16.20;87.40;;;;;;5112322;28;19924;-65
2023/03/28 08:44:49;;;;;;;;;;;15.10;87.00;;;;;;5111455;28;19927;-65
2023/03/28 08:47:17;;;;;;;;;;;14.00;87.60;;;;;;5111754;28;19933;-67
2023/03/28 08:49:48;;;;;;;;;;;13.30;89.00;;;;;;5093866;28;19953;-63
2023/03/28 08:52:16;;;;;;;;;;;12.80;89.90;;;;;;5094059;28;19967;-67
2023/03/28 08:54:45;;;;;;;;;;;12.50;90.70;;;;;;5111882;28;20399;-64
2023/03/28 08:57:22;;;;;;;;;;;12.30;90.90;;;;;;5112304;28;20399;-64
2023/03/28 09:00:08;;;;;;;;;;;12.10;91.30;;;;;;5112464;28;20007;-65
2023/03/28 09:02:33;;;;;;;;;;;12.00;91.60;;;;;;5112002;28;19934;-64
2023/03/28 09:04:59;;;;;;;;;;;12.00;92.00;;;;;;5112064;28;20011;-64
2023/03/28 09:07:58;;;;;;;;;;;12.10;92.20;;;;;;5093799;28;19969;-65
2023/03/28 09:10:24;;;;;;;;;;;12.10;92.40;;;;;;5038842;28;19924;-65
2023/03/28 09:12:56;;;;;;;;;;;12.20;92.60;;;;;;5112231;28;19924;-65
2023/03/28 09:15:42;;;;;;;;;;;12.50;92.30;;;;;;5111558;28;20026;-65
2023/03/28 09:18:23;;;;;;;;;;;12.70;92.00;;;;;;5112380;28;19924;-64
2023/03/28 09:20:55;;;;;;;;;;;13.00;91.90;;;;;;5111974;28;19924;-64
2023/03/28 09:23:39;;;;;;;;;;;13.30;91.50;;;;;;5111813;28;19923;-66
2023/03/28 09:26:05;;;;;;;;;;;13.50;91.40;;;;;;5112017;28;20014;-66
2023/03/28 09:28:50;;;;;;;;;;;13.40;91.50;;;;;;5111305;28;19971;-63
2023/03/28 09:31:17;;;;;;;;;;;13.10;90.30;;;;;;5079517;28;19931;-65
2023/03/28 09:33:45;;;;;;;;;;;12.80;90.50;;;;;;5097218;28;19935;-65
2023/03/28 09:36:11;;;;;;;;;;;12.70;90.00;;;;;;5098188;28;19924;-65
2023/03/28 09:38:39;;;;;;;;;;;12.70;90.40;;;;;;5115526;28;20377;-65
2023/03/28 09:41:10;;;;;;;;;;;12.50;90.50;;;;;;5115929;28;19924;-65
2023/03/28 09:43:40;;;;;;;;;;;12.50;88.70;;;;;;5115463;28;19924;-66
2023/03/28 09:46:07;;;;;;;;;;;12.40;90.40;;;;;;5115715;28;19982;-65
2023/03/28 09:48:34;;;;;;;;;;;12.40;90.10;;;;;;5115074;28;19979;-66
2023/03/28 09:51:00;;;;;;;;;;;12.30;90.40;;;;;;5115648;28;19924;-65
2023/03/28 09:53:30;;;;;;;;;;;12.10;90.40;;;;;;5115436;28;19980;-66
2023/03/28 09:55:58;;;;;;;;;;;11.80;90.20;;;;;;5115600;28;20349;-66
2023/03/28 09:58:24;;;;;;;;;;;11.60;90.30;;;;;;5115415;28;19924;-68
2023/03/28 10:00:51;;;;;;;;;;;11.30;92.00;;;;;;5115160;28;19928;-67
2023/03/28 10:03:31;;;;;;;;;;;11.30;90.90;;;;;;5097324;28;19924;-66
2023/03/28 10:05:58;;;;;;;;;;;11.20;91.40;;;;;;5097560;28;19931;-65
2023/03/28 10:08:34;;;;;;;;;;;11.10;91.00;;;;;;5096927;28;19923;-68
2023/03/28 10:11:20;;;;;;;;;;;11.20;91.10;;;;;;5115174;28;20023;-67
2023/03/28 10:13:46;;;;;;;;;;;11.20;90.70;;;;;;5079757;28;19927;-67
2023/03/28 10:16:13;;;;;;;;;;;11.30;90.60;;;;;;5115384;28;19923;-68
2023/03/28 10:18:40;;;;;;;;;;;11.40;90.30;;;;;;5115000;28;20292;-66
2023/03/28 10:21:11;;;;;;;;;;;11.40;90.10;;;;;;5115118;28;19924;-67
2023/03/28 10:23:38;;;;;;;;;;;11.50;90.40;;;;;;5114801;28;19924;-68
2023/03/28 10:26:04;;;;;;;;;;;11.40;90.40;;;;;;5114532;28;19924;-67
2023/03/28 10:28:34;;;;;;;;;;;11.40;90.40;;;;;;5096936;28;19924;-69
2023/03/28 10:31:01;;;;;;;;;;;11.30;90.90;;;;;;5114794;28;19924;-67
2023/03/28 10:33:30;;;;;;;;;;;11.10;91.10;;;;;;5114582;28;20372;-69
2023/03/28 10:36:01;;;;;;;;;;;11.20;91.60;;;;;;5114797;28;20329;-66
2023/03/28 10:38:37;;;;;;;;;;;11.10;91.70;;;;;;5114847;28;19996;-68
2023/03/28 10:41:09;;;;;;;;;;;11.10;91.90;;;;;;5096877;28;19935;-66
2023/03/28 10:43:38;;;;;;;;;;;11.00;92.20;;;;;;5113544;28;19931;-67
2023/03/28 10:46:07;;;;;;;;;;;10.80;91.70;;;;;;5114548;28;19924;-67
2023/03/28 10:48:35;;;;;;;;;;;10.60;92.40;;;;;;5114001;28;19942;-68
2023/03/28 10:51:07;;;;;;;;;;;10.70;92.40;;;;;;5096634;28;19924;-67
2023/03/28 10:53:51;;;;;;;;;;;10.70;91.10;;;;;;5096163;28;19935;-69
2023/03/28 10:56:17;;;;;;;;;;;10.80;91.00;;;;;;5096111;28;19924;-68
2023/03/28 10:59:01;;;;;;;;;;;11.00;91.40;;;;;;5079226;28;19935;-67
2023/03/28 11:01:30;;;;;;;;;;;11.20;91.90;;;;;;5114586;28;20343;-67
2023/03/28 11:04:04;;;;;;;;;;;11.40;91.70;;;;;;5113976;28;20005;-67
2023/03/28 11:06:35;;;;;;;;;;;11.40;91.50;;;;;;5114191;28;20014;-67
2023/03/28 11:09:06;;;;;;;;;;;11.30;90.40;;;;;;5096009;28;19984;-67
2023/03/28 11:11:37;;;;;;;;;;;11.20;91.20;;;;;;5114181;28;19946;-69
2023/03/28 11:14:13;;;;;;;;;;;11.20;91.50;;;;;;5114290;28;20363;-66
2023/03/28 11:16:48;;;;;;;;;;;11.20;91.20;;;;;;5113198;28;20380;-67
2023/03/28 11:19:29;;;;;;;;;;;11.10;91.80;;;;;;5095969;28;19924;-67
2023/03/28 11:22:04;;;;;;;;;;;11.10;92.00;;;;;;5113713;28;19923;-67
2023/03/28 11:24:46;;;;;;;;;;;11.00;92.20;;;;;;5113967;28;19985;-66
2023/03/28 11:27:21;;;;;;;;;;;11.00;92.30;;;;;;5095675;28;19942;-67
2023/03/28 11:29:48;;;;;;;;;;;11.00;92.30;;;;;;5112903;28;20380;-68
2023/03/28 11:32:14;;;;;;;;;;;11.00;92.50;;;;;;5113633;28;19928;-67
2023/03/28 11:34:54;;;;;;;;;;;11.20;92.90;;;;;;5113294;28;20322;-67
2023/03/28 11:37:23;;;;;;;;;;;11.20;92.30;;;;;;5113776;28;19924;-67
2023/03/28 11:40:05;;;;;;;;;;;11.20;92.80;;;;;;5095252;28;19928;-67
2023/03/28 11:42:44;;;;;;;;;;;11.20;92.50;;;;;;5095839;28;20026;-68
2023/03/28 11:45:17;;;;;;;;;;;11.20;92.60;;;;;;5113503;28;19992;-68
2023/03/28 11:48:02;;;;;;;;;;;11.20;92.30;;;;;;5113071;28;19935;-67
2023/03/28 11:50:48;;;;;;;;;;;11.10;91.80;;;;;;5113447;28;19976;-66
2023/03/28 11:53:21;;;;;;;;;;;11.10;91.70;;;;;;5061087;28;19927;-67
2023/03/28 11:55:54;;;;;;;;;;;11.10;91.40;;;;;;5094346;28;19931;-67
2023/03/28 11:58:22;;;;;;;;;;;11.10;91.70;;;;;;5113225;28;19923;-68
2023/03/28 12:00:56;;;;;;;;;;;11.20;91.40;;;;;;5094663;28;19924;-67
2023/03/28 12:03:29;;;;;;;;;;;11.40;91.80;;;;;;5113376;28;20027;-68
2023/03/28 12:06:20;;;;;;;;;;;11.30;91.60;;;;;;5112879;28;19924;-67
2023/03/28 12:08:50;;;;;;;;;;;11.30;91.60;;;;;;5073408;28;20360;-67
2023/03/28 12:11:20;;;;;;;;;;;11.10;91.80;;;;;;5112763;28;20373;-66
2023/03/28 12:13:49;;;;;;;;;;;11.00;92.10;;;;;;5112470;28;19975;-66
2023/03/28 12:16:16;;;;;;;;;;;11.10;91.10;;;;;;5112892;28;19924;-67
2023/03/28 12:18:47;;;;;;;;;;;11.10;90.90;;;;;;5112884;28;19924;-67
2023/03/28 12:21:24;;;;;;;;;;;11.20;91.30;;;;;;5112782;28;19928;-66
2023/03/28 12:23:50;;;;;;;;;;;11.20;91.00;;;;;;5094517;28;19931;-67
2023/03/28 12:26:30;;;;;;;;;;;11.30;90.70;;;;;;5112578;28;20302;-65
2023/03/28 12:28:57;;;;;;;;;;;11.20;90.70;;;;;;5112384;28;19923;-67
2023/03/28 12:31:23;;;;;;;;;;;11.20;91.20;;;;;;5112585;28;19928;-66
2023/03/28 12:33:56;;;;;;;;;;;11.30;91.50;;;;;;5093970;28;19923;-65
2023/03/28 12:36:40;;;;;;;;;;;11.40;91.70;;;;;;5112486;28;19924;-66
2023/03/28 12:39:18;;;;;;;;;;;11.40;91.80;;;;;;5112040;28;20006;-66
2023/03/28 12:41:44;;;;;;;;;;;11.40;92.10;;;;;;5094579;28;19986;-65
2023/03/28 12:44:12;;;;;;;;;;;11.40;91.80;;;;;;5111845;28;20388;-66
2023/03/28 12:46:44;;;;;;;;;;;11.30;91.80;;;;;;5112440;28;20014;-67
2023/03/28 12:49:17;;;;;;;;;;;11.10;92.10;;;;;;5094245;28;19947;-66
2023/03/28 12:51:47;;;;;;;;;;;11.00;92.40;;;;;;5094378;28;19931;-65
2023/03/28 12:54:13;;;;;;;;;;;11.00;91.90;;;;;;5094218;28;20018;-65
2023/03/28 12:56:39;;;;;;;;;;;10.90;91.70;;;;;;5112347;28;19989;-66
2023/03/28 12:59:23;;;;;;;;;;;10.70;91.80;;;;;;5094080;28;19923;-66
2023/03/28 13:01:51;;;;;;;;;;;10.70;91.50;;;;;;5111831;28;20353;-67
2023/03/28 13:04:24;;;;;;;;;;;10.60;92.20;;;;;;5112464;28;20032;-65
2023/03/28 13:07:06;;;;;;;;;;;10.60;92.60;;;;;;5116093;28;20010;-67
2023/03/28 13:09:31;;;;;;;;;;;10.70;92.50;;;;;;5116294;28;20421;-66
2023/03/28 13:12:00;;;;;;;;;;;10.80;92.10;;;;;;5115648;28;19928;-67
2023/03/28 13:14:38;;;;;;;;;;;10.90;91.20;;;;;;5116384;28;19924;-67
2023/03/28 13:17:16;;;;;;;;;;;11.10;91.70;;;;;;5116088;28;19924;-66
2023/03/28 13:19:42;;;;;;;;;;;11.10;91.40;;;;;;5098402;28;20380;-67
2023/03/28 13:22:24;;;;;;;;;;;11.20;91.00;;;;;;5097730;28;20011;-66
2023/03/28 13:24:50;;;;;;;;;;;11.10;90.90;;;;;;5116148;28;19930;-66
2023/03/28 13:27:31;;;;;;;;;;;11.00;91.20;;;;;;5115649;28;20022;-67
2023/03/28 13:30:16;;;;;;;;;;;11.00;91.70;;;;;;5115660;28;19930;-66
2023/03/28 13:32:47;;;;;;;;;;;10.90;91.60;;;;;;5116129;28;19984;-67
2023/03/28 13:35:31;;;;;;;;;;;10.90;91.30;;;;;;5080601;28;20111;-65
2023/03/28 13:38:11;;;;;;;;;;;10.90;91.80;;;;;;5115476;28;20015;-65
2023/03/28 13:40:49;;;;;;;;;;;11.00;91.20;;;;;;5116029;28;20022;-67
2023/03/28 13:43:24;;;;;;;;;;;10.90;91.10;;;;;;5115462;28;20019;-66
2023/03/28 13:45:50;;;;;;;;;;;10.80;91.10;;;;;;5115634;28;19923;-66
2023/03/28 13:48:16;;;;;;;;;;;10.80;91.40;;;;;;5115256;28;20245;-67
2023/03/28 13:50:43;;;;;;;;;;;10.80;91.40;;;;;;5115827;28;19975;-66
2023/03/28 13:53:09;;;;;;;;;;;10.80;91.40;;;;;;5080350;28;20369;-66
2023/03/28 13:55:35;;;;;;;;;;;10.80;91.50;;;;;;5097451;28;19931;-66
2023/03/28 13:58:01;;;;;;;;;;;10.70;91.40;;;;;;5115057;28;19923;-66
2023/03/28 14:00:27;;;;;;;;;;;10.60;91.60;;;;;;5115592;28;19924;-66
2023/03/28 14:02:59;;;;;;;;;;;10.60;92.10;;;;;;5097088;28;20482;-65
2023/03/28 14:05:27;;;;;;;;;;;10.70;92.10;;;;;;5115511;28;19971;-65
2023/03/28 14:07:53;;;;;;;;;;;10.70;92.10;;;;;;5115217;28;19993;-66
2023/03/28 14:10:21;;;;;;;;;;;10.60;92.10;;;;;;5114641;28;19920;-65
2023/03/28 14:12:50;;;;;;;;;;;10.50;92.40;;;;;;5096988;28;19931;-66
2023/03/28 14:15:20;;;;;;;;;;;10.50;92.40;;;;;;5114777;28;19923;-65
2023/03/28 14:17:46;;;;;;;;;;;10.40;92.20;;;;;;5095780;28;19945;-65
2023/03/28 14:20:16;;;;;;;;;;;10.30;92.00;;;;;;5114727;28;19924;-65
2023/03/28 14:22:44;;;;;;;;;;;10.10;92.30;;;;;;5114761;28;19923;-65
2023/03/28 14:25:11;;;;;;;;;;;9.80;93.00;;;;;;5114153;28;19930;-65
2023/03/28 14:27:37;;;;;;;;;;;9.80;93.00;;;;;;5115084;28;20431;-65
2023/03/28 14:30:14;;;;;;;;;;;9.80;92.90;;;;;;5114477;28;19971;-66
2023/03/28 14:32:49;;;;;;;;;;;9.80;92.90;;;;;;5114399;28;20061;-65
2023/03/28 14:35:15;;;;;;;;;;;9.90;92.80;;;;;;5114248;28;19928;-65
2023/03/28 14:37:48;;;;;;;;;;;9.90;93.00;;;;;;5114705;28;20345;-65